SondeTracker

Meteorological Radiosondes Database

Operations

Sounding was ended - last measurement: 2022-12-06 01:14:45z

MAP
About Radiosonde

Number: D22041647 (22041647)

Launch Site:

Type: DFM17

AUX: NO

Frequency: 403.810 MHz

Max Speed: 191 km/h at 13569 m

Average Speed: 145.09 km/h

Max Altitude: 17931 m

Average Ascent Speed: 0.00 m/s

Average Descent Speed: 11.78 m/s

Status: UNKNOWN

Status Changes
Launch Site Type AUX Frequency Status Finder Landing Point Description Changes made by
APRS Statistics

Received Frames: 33

First Frame [UTC]: 2022-12-06 00:59:32z

Last Frame [UTC]: 2022-12-06 01:14:45z

Receivers: W4KZK-14

Flight Time: 00:15:13 h

Distance From First Measurement: 42.21 km

Nearest City: Marietta [OH] (US) [35.37 km]

Nearest Hunter: [0.00 km]

Ground Altitude: 312 m

Distance from QTH: 0.00 km

APRS Data
Receiver Number Date/Time [UTC] φ λ Course [°] Speed [km/h] Altitude [m] Description
W4KZK-14D220416472022-12-06 01:14:4539.3177-81.0587871197173Clb=-8.1m/s t=-27.9C h=-1.0% p=-1.0hPa 403.810 MHz Type=DFM17 ser=22041647 Radiosonde
W4KZK-14D220416472022-12-06 01:14:1439.3175-81.0634861207270Clb=-8.2m/s t=-28.0C h=-1.0% p=-1.0hPa 403.810 MHz Type=DFM17 ser=22041647 Radiosonde
W4KZK-14D220416472022-12-06 01:13:4039.3174-81.0756901227524Clb=-8.3m/s t=-29.9C h=-1.0% p=-1.0hPa 403.810 MHz Type=DFM17 ser=22041647 Radiosonde
W4KZK-14D220416472022-12-06 01:13:0739.3176-81.0887911227792Clb=-8.3m/s t=-32.4C h=-1.0% p=-1.0hPa 403.810 MHz Type=DFM17 ser=22041647 Radiosonde
W4KZK-14D220416472022-12-06 01:12:3439.3181-81.1019931248064Clb=-8.2m/s t=-35.0C h=-1.0% p=-1.0hPa 403.810 MHz Type=DFM17 ser=22041647 Radiosonde
W4KZK-14D220416472022-12-06 01:11:5939.319-81.1152961268333Clb=-8.2m/s t=-37.4C h=-1.0% p=-1.0hPa 403.810 MHz Type=DFM17 ser=22041647 Radiosonde
W4KZK-14D220416472022-12-06 01:11:2639.32-81.1284951248605Clb=-8.2m/s t=-39.6C h=-1.0% p=-1.0hPa 403.810 MHz Type=DFM17 ser=22041647 Radiosonde
W4KZK-14D220416472022-12-06 01:10:5439.3212-81.1418971288882Clb=-8.6m/s t=-41.9C h=-1.0% p=-1.0hPa 403.810 MHz Type=DFM17 ser=22041647 Radiosonde
W4KZK-14D220416472022-12-06 01:10:2039.3226-81.1558971359160Clb=-8.7m/s t=-44.0C h=-1.0% p=-1.0hPa 403.810 MHz Type=DFM17 ser=22041647 Radiosonde
W4KZK-14D220416472022-12-06 01:09:4839.3241-81.1741941439513Clb=-8.8m/s t=-46.5C h=-1.0% p=-1.0hPa 403.810 MHz Type=DFM17 ser=22041647 Radiosonde
W4KZK-14D220416472022-12-06 01:09:1539.3246-81.1857931439726Clb=-8.5m/s t=-48.3C h=-1.0% p=-1.0hPa 403.810 MHz Type=DFM17 ser=22041647 Radiosonde
W4KZK-14D220416472022-12-06 01:08:4039.3255-81.21179414410211Clb=-9.0m/s t=-52.2C h=-1.0% p=-1.0hPa 403.810 MHz Type=DFM17 ser=22041647 Radiosonde
W4KZK-14D220416472022-12-06 01:08:0439.3257-81.21639314310297Clb=-8.8m/s t=-53.0C h=-1.0% p=-1.0hPa 403.810 MHz Type=DFM17 ser=22041647 Radiosonde
W4KZK-14D220416472022-12-06 01:07:3139.3268-81.23149714610594Clb=-9.6m/s t=-55.6C h=-1.0% p=-1.0hPa 403.810 MHz Type=DFM17 ser=22041647 Radiosonde
W4KZK-14D220416472022-12-06 01:06:5839.3289-81.246910114610901Clb=-9.8m/s t=-58.3C h=-1.0% p=-1.0hPa 403.810 MHz Type=DFM17 ser=22041647 Radiosonde
W4KZK-14D220416472022-12-06 01:06:4339.3317-81.262810015011224Clb=-9.6m/s t=-59.8C h=-1.0% p=-1.0hPa 403.810 MHz Type=DFM17 ser=22041647 Radiosonde
W4KZK-14D220416472022-12-06 01:06:4139.3343-81.279510216511537Clb=-9.6m/s t=-59.4C h=-1.0% p=-1.0hPa 403.810 MHz Type=DFM17 ser=22041647 Radiosonde
W4KZK-14D220416472022-12-06 01:06:3439.3368-81.29710116911856Clb=-9.8m/s t=-60.1C h=-1.0% p=-1.0hPa 403.810 MHz Type=DFM17 ser=22041647 Radiosonde
W4KZK-14D220416472022-12-06 01:06:1039.3403-81.314510617212185Clb=-10.1m/s t=-61.3C h=-1.0% p=-1.0hPa 403.810 MHz Type=DFM17 ser=22041647 Radiosonde
W4KZK-14D220416472022-12-06 01:05:5839.3435-81.331910016512520Clb=-10.4m/s t=-62.6C h=-1.0% p=-1.0hPa 403.810 MHz Type=DFM17 ser=22041647 Radiosonde
W4KZK-14D220416472022-12-06 01:05:5239.3467-81.350110417412861Clb=-10.5m/s t=-61.9C h=-1.0% p=-1.0hPa 403.810 MHz Type=DFM17 ser=22041647 Radiosonde
W4KZK-14D220416472022-12-06 01:05:4539.3506-81.368710418913212Clb=-10.9m/s t=-62.4C h=-1.0% p=-1.0hPa 403.810 MHz Type=DFM17 ser=22041647 Radiosonde
W4KZK-14D220416472022-12-06 01:05:2539.3548-81.388210419113569Clb=-10.9m/s t=-62.8C h=-1.0% p=-1.0hPa 403.810 MHz Type=DFM17 ser=22041647 Radiosonde
W4KZK-14D220416472022-12-06 01:05:0039.3586-81.408210318713940Clb=-11.2m/s t=-64.2C h=-1.0% p=-1.0hPa 403.810 MHz Type=DFM17 ser=22041647 Radiosonde
W4KZK-14D220416472022-12-06 01:04:5939.3625-81.427410718514301Clb=-11.6m/s t=-64.0C h=-1.0% p=-1.0hPa 403.810 MHz Type=DFM17 ser=22041647 Radiosonde
W4KZK-14D220416472022-12-06 01:04:4639.3672-81.445710718014697Clb=-12.2m/s t=-63.5C h=-1.0% p=-1.0hPa 403.810 MHz Type=DFM17 ser=22041647 Radiosonde
W4KZK-14D220416472022-12-06 01:04:0639.3715-81.464710717015124Clb=-12.9m/s t=-65.4C h=-1.0% p=-1.0hPa 403.810 MHz Type=DFM17 ser=22041647 Radiosonde
W4KZK-14D220416472022-12-06 01:03:1939.3756-81.479210612815534Clb=-13.0m/s t=-66.5C h=-1.0% p=-1.0hPa 403.810 MHz Type=DFM17 ser=22041647 Radiosonde
W4KZK-14D220416472022-12-06 01:02:3739.3774-81.4939613715981Clb=-13.4m/s t=-68.3C h=-1.0% p=-1.0hPa 403.810 MHz Type=DFM17 ser=22041647 Radiosonde
W4KZK-14D220416472022-12-06 01:01:5339.3803-81.50711011316432Clb=-14.1m/s t=-65.2C h=-1.0% p=-1.0hPa 403.810 MHz Type=DFM17 ser=22041647 Radiosonde
W4KZK-14D220416472022-12-06 01:01:0339.3821-81.51899212416906Clb=-14.8m/s t=-65.0C h=-1.0% p=-1.0hPa 403.810 MHz Type=DFM17 ser=22041647 Radiosonde
W4KZK-14D220416472022-12-06 01:00:1739.3842-81.531511411717407Clb=-15.4m/s t=-64.5C h=-1.0% p=-1.0hPa 403.810 MHz Type=DFM17 ser=22041647 Radiosonde
W4KZK-14D220416472022-12-06 00:59:3239.3867-81.5414918717931Clb=-16.3m/s t=-64.6C h=-1.0% p=-1.0hPa 403.810 MHz Type=DFM17 ser=22041647 Radiosonde